sensor_id;sensor_type;location;lat;lon;timestamp;temperature;humidity
76838;DHT22;65797;47.352;8.164;2023-02-15T00:01:24;-0.70;1.00
76838;DHT22;65797;47.352;8.164;2023-02-15T00:03:50;-0.70;1.00
76838;DHT22;65797;47.352;8.164;2023-02-15T00:06:16;-0.70;1.00
76838;DHT22;65797;47.352;8.164;2023-02-15T00:08:41;-0.70;1.00
76838;DHT22;65797;47.352;8.164;2023-02-15T00:11:09;-0.80;1.00
76838;DHT22;65797;47.352;8.164;2023-02-15T00:13:35;-0.80;1.00
76838;DHT22;65797;47.352;8.164;2023-02-15T00:16:12;-0.80;1.00
76838;DHT22;65797;47.352;8.164;2023-02-15T00:18:41;-0.80;1.00
76838;DHT22;65797;47.352;8.164;2023-02-15T00:21:09;-0.90;1.00
76838;DHT22;65797;47.352;8.164;2023-02-15T00:23:35;-0.80;1.00
76838;DHT22;65797;47.352;8.164;2023-02-15T00:26:06;-0.90;1.00
76838;DHT22;65797;47.352;8.164;2023-02-15T00:28:32;-0.90;1.00
76838;DHT22;65797;47.352;8.164;2023-02-15T00:33:30;-1.00;1.00
76838;DHT22;65797;47.352;8.164;2023-02-15T00:35:59;-0.90;1.00
76838;DHT22;65797;47.352;8.164;2023-02-15T00:38:27;-0.90;1.00
76838;DHT22;65797;47.352;8.164;2023-02-15T00:40:54;-1.10;1.00
76838;DHT22;65797;47.352;8.164;2023-02-15T00:43:20;-1.10;1.00
76838;DHT22;65797;47.352;8.164;2023-02-15T00:45:46;-1.10;1.00
76838;DHT22;65797;47.352;8.164;2023-02-15T00:48:12;-1.10;1.00
76838;DHT22;65797;47.352;8.164;2023-02-15T00:50:38;-1.10;1.00
76838;DHT22;65797;47.352;8.164;2023-02-15T00:53:04;-1.10;1.00
76838;DHT22;65797;47.352;8.164;2023-02-15T00:55:29;-1.10;1.00
76838;DHT22;65797;47.352;8.164;2023-02-15T00:57:55;-1.10;1.00
76838;DHT22;65797;47.352;8.164;2023-02-15T01:00:20;-1.00;1.00
76838;DHT22;65797;47.352;8.164;2023-02-15T01:02:46;-1.00;1.00
76838;DHT22;65797;47.352;8.164;2023-02-15T01:05:12;-1.00;1.00
76838;DHT22;65797;47.352;8.164;2023-02-15T01:07:38;-1.00;1.00
76838;DHT22;65797;47.352;8.164;2023-02-15T01:10:05;-1.00;1.00
76838;DHT22;65797;47.352;8.164;2023-02-15T01:12:31;-1.00;1.00
76838;DHT22;65797;47.352;8.164;2023-02-15T01:14:57;-1.00;1.00
76838;DHT22;65797;47.352;8.164;2023-02-15T01:17:22;-1.00;1.00
76838;DHT22;65797;47.352;8.164;2023-02-15T01:19:48;-1.00;1.00
76838;DHT22;65797;47.352;8.164;2023-02-15T01:22:14;-1.00;1.00
76838;DHT22;65797;47.352;8.164;2023-02-15T01:24:39;-0.90;1.00
76838;DHT22;65797;47.352;8.164;2023-02-15T01:27:05;-1.00;1.00
76838;DHT22;65797;47.352;8.164;2023-02-15T01:29:31;-1.00;1.00
76838;DHT22;65797;47.352;8.164;2023-02-15T01:31:56;-1.10;1.00
76838;DHT22;65797;47.352;8.164;2023-02-15T01:34:22;-1.20;1.00
76838;DHT22;65797;47.352;8.164;2023-02-15T01:36:48;-1.30;1.00
76838;DHT22;65797;47.352;8.164;2023-02-15T01:39:13;-1.30;1.00
76838;DHT22;65797;47.352;8.164;2023-02-15T01:41:40;-1.30;1.00
76838;DHT22;65797;47.352;8.164;2023-02-15T01:44:40;-1.30;1.00
76838;DHT22;65797;47.352;8.164;2023-02-15T01:47:13;-1.30;1.00
76838;DHT22;65797;47.352;8.164;2023-02-15T01:49:40;-1.40;1.00
76838;DHT22;65797;47.352;8.164;2023-02-15T01:52:10;-1.50;1.00
76838;DHT22;65797;47.352;8.164;2023-02-15T01:54:38;-1.60;1.00
76838;DHT22;65797;47.352;8.164;2023-02-15T01:57:11;-1.60;1.00
76838;DHT22;65797;47.352;8.164;2023-02-15T01:59:39;-1.60;1.00
76838;DHT22;65797;47.352;8.164;2023-02-15T02:02:07;-1.50;1.00
76838;DHT22;65797;47.352;8.164;2023-02-15T02:04:56;-1.50;1.00
76838;DHT22;65797;47.352;8.164;2023-02-15T02:07:27;-1.40;1.00
76838;DHT22;65797;47.352;8.164;2023-02-15T02:09:54;-1.60;1.00
76838;DHT22;65797;47.352;8.164;2023-02-15T02:12:21;-1.60;1.00
76838;DHT22;65797;47.352;8.164;2023-02-15T02:14:48;-1.70;1.00
76838;DHT22;65797;47.352;8.164;2023-02-15T02:17:31;-1.60;1.00
76838;DHT22;65797;47.352;8.164;2023-02-15T02:34:33;-1.80;1.00
76838;DHT22;65797;47.352;8.164;2023-02-15T02:37:17;-1.80;1.00
76838;DHT22;65797;47.352;8.164;2023-02-15T02:40:20;-1.90;1.00
76838;DHT22;65797;47.352;8.164;2023-02-15T02:43:03;-1.90;1.00
76838;DHT22;65797;47.352;8.164;2023-02-15T02:45:44;-2.00;1.00
76838;DHT22;65797;47.352;8.164;2023-02-15T02:48:18;-2.00;1.00
76838;DHT22;65797;47.352;8.164;2023-02-15T02:50:45;-2.00;1.00
76838;DHT22;65797;47.352;8.164;2023-02-15T02:53:11;-2.00;1.00
76838;DHT22;65797;47.352;8.164;2023-02-15T02:58:35;-1.80;1.00
76838;DHT22;65797;47.352;8.164;2023-02-15T03:01:11;-1.90;1.00
76838;DHT22;65797;47.352;8.164;2023-02-15T03:03:43;-1.80;1.00
76838;DHT22;65797;47.352;8.164;2023-02-15T03:06:21;-1.90;1.00
76838;DHT22;65797;47.352;8.164;2023-02-15T03:08:53;-2.10;1.00
76838;DHT22;65797;47.352;8.164;2023-02-15T03:11:20;-2.10;1.00
76838;DHT22;65797;47.352;8.164;2023-02-15T03:13:47;-2.10;1.00
76838;DHT22;65797;47.352;8.164;2023-02-15T03:16:15;-2.20;1.00
76838;DHT22;65797;47.352;8.164;2023-02-15T03:19:00;-2.20;1.00
76838;DHT22;65797;47.352;8.164;2023-02-15T03:21:43;-2.20;1.00
76838;DHT22;65797;47.352;8.164;2023-02-15T03:24:25;-2.30;1.00
76838;DHT22;65797;47.352;8.164;2023-02-15T03:26:53;-2.20;1.00
76838;DHT22;65797;47.352;8.164;2023-02-15T03:29:22;-2.30;1.00
76838;DHT22;65797;47.352;8.164;2023-02-15T03:31:52;-2.20;1.00
76838;DHT22;65797;47.352;8.164;2023-02-15T03:34:19;-2.10;1.00
76838;DHT22;65797;47.352;8.164;2023-02-15T03:42:32;-2.10;1.00
76838;DHT22;65797;47.352;8.164;2023-02-15T03:45:05;-2.40;1.00
76838;DHT22;65797;47.352;8.164;2023-02-15T03:47:43;-2.30;1.00
76838;DHT22;65797;47.352;8.164;2023-02-15T03:53:02;-2.20;1.00
76838;DHT22;65797;47.352;8.164;2023-02-15T03:55:30;-2.10;1.00
76838;DHT22;65797;47.352;8.164;2023-02-15T03:57:56;-2.10;1.00
76838;DHT22;65797;47.352;8.164;2023-02-15T04:01:11;-2.10;1.00
76838;DHT22;65797;47.352;8.164;2023-02-15T04:04:41;-2.10;1.00
76838;DHT22;65797;47.352;8.164;2023-02-15T04:06:47;-2.10;1.00
76838;DHT22;65797;47.352;8.164;2023-02-15T04:09:13;-2.00;1.00
76838;DHT22;65797;47.352;8.164;2023-02-15T04:11:58;-2.00;1.00
76838;DHT22;65797;47.352;8.164;2023-02-15T04:14:24;-2.00;1.00
76838;DHT22;65797;47.352;8.164;2023-02-15T04:17:08;-2.00;1.00
76838;DHT22;65797;47.352;8.164;2023-02-15T04:19:34;-2.00;1.00
76838;DHT22;65797;47.352;8.164;2023-02-15T04:22:19;-1.90;1.00
76838;DHT22;65797;47.352;8.164;2023-02-15T04:25:04;-1.90;1.00
76838;DHT22;65797;47.352;8.164;2023-02-15T04:27:41;-2.00;1.00
76838;DHT22;65797;47.352;8.164;2023-02-15T04:30:08;-2.20;1.00
76838;DHT22;65797;47.352;8.164;2023-02-15T04:32:35;-2.10;1.00
76838;DHT22;65797;47.352;8.164;2023-02-15T04:35:01;-2.00;1.00
76838;DHT22;65797;47.352;8.164;2023-02-15T04:37:26;-2.00;1.00
76838;DHT22;65797;47.352;8.164;2023-02-15T04:39:53;-1.90;1.00
76838;DHT22;65797;47.352;8.164;2023-02-15T04:42:19;-1.90;1.00
76838;DHT22;65797;47.352;8.164;2023-02-15T04:44:45;-1.90;1.00
76838;DHT22;65797;47.352;8.164;2023-02-15T04:47:10;-1.90;1.00
76838;DHT22;65797;47.352;8.164;2023-02-15T04:49:36;-2.00;1.00
76838;DHT22;65797;47.352;8.164;2023-02-15T04:52:02;-2.00;1.00
76838;DHT22;65797;47.352;8.164;2023-02-15T04:54:28;-2.10;1.00
76838;DHT22;65797;47.352;8.164;2023-02-15T04:56:53;-2.00;1.00
76838;DHT22;65797;47.352;8.164;2023-02-15T04:59:19;-2.10;1.00
76838;DHT22;65797;47.352;8.164;2023-02-15T05:01:45;-2.00;1.00
76838;DHT22;65797;47.352;8.164;2023-02-15T05:04:10;-2.10;1.00
76838;DHT22;65797;47.352;8.164;2023-02-15T05:06:36;-2.00;1.00
76838;DHT22;65797;47.352;8.164;2023-02-15T05:09:02;-2.00;1.00
76838;DHT22;65797;47.352;8.164;2023-02-15T05:11:27;-2.00;1.00
76838;DHT22;65797;47.352;8.164;2023-02-15T05:13:53;-1.90;1.00
76838;DHT22;65797;47.352;8.164;2023-02-15T05:16:19;-1.90;1.00
76838;DHT22;65797;47.352;8.164;2023-02-15T05:18:44;-1.90;1.00
76838;DHT22;65797;47.352;8.164;2023-02-15T05:21:10;-1.90;1.00
76838;DHT22;65797;47.352;8.164;2023-02-15T05:23:36;-1.90;1.00
76838;DHT22;65797;47.352;8.164;2023-02-15T05:26:03;-1.90;1.00
76838;DHT22;65797;47.352;8.164;2023-02-15T05:28:47;-2.00;1.00
76838;DHT22;65797;47.352;8.164;2023-02-15T05:31:19;-2.00;1.00
76838;DHT22;65797;47.352;8.164;2023-02-15T05:33:45;-1.90;1.00
76838;DHT22;65797;47.352;8.164;2023-02-15T05:36:11;-2.00;1.00
76838;DHT22;65797;47.352;8.164;2023-02-15T05:38:37;-2.00;1.00
76838;DHT22;65797;47.352;8.164;2023-02-15T05:41:04;-2.10;1.00
76838;DHT22;65797;47.352;8.164;2023-02-15T05:43:30;-2.10;1.00
76838;DHT22;65797;47.352;8.164;2023-02-15T05:45:56;-2.20;1.00
76838;DHT22;65797;47.352;8.164;2023-02-15T05:48:24;-2.20;1.00
76838;DHT22;65797;47.352;8.164;2023-02-15T05:50:59;-2.10;1.00
76838;DHT22;65797;47.352;8.164;2023-02-15T05:53:27;-2.10;1.00
76838;DHT22;65797;47.352;8.164;2023-02-15T05:55:53;-2.10;1.00
76838;DHT22;65797;47.352;8.164;2023-02-15T05:58:19;-2.10;1.00
76838;DHT22;65797;47.352;8.164;2023-02-15T06:00:45;-2.10;1.00
76838;DHT22;65797;47.352;8.164;2023-02-15T06:03:11;-2.10;1.00
76838;DHT22;65797;47.352;8.164;2023-02-15T06:05:37;-2.10;1.00
76838;DHT22;65797;47.352;8.164;2023-02-15T06:08:04;-2.00;1.00
76838;DHT22;65797;47.352;8.164;2023-02-15T06:10:30;-2.10;1.00
76838;DHT22;65797;47.352;8.164;2023-02-15T06:12:55;-2.00;1.00
76838;DHT22;65797;47.352;8.164;2023-02-15T06:15:21;-2.00;1.00
76838;DHT22;65797;47.352;8.164;2023-02-15T06:17:46;-2.00;1.00
76838;DHT22;65797;47.352;8.164;2023-02-15T06:20:12;-2.00;1.00
76838;DHT22;65797;47.352;8.164;2023-02-15T06:22:38;-2.00;1.00
76838;DHT22;65797;47.352;8.164;2023-02-15T06:25:04;-2.00;1.00
76838;DHT22;65797;47.352;8.164;2023-02-15T06:27:30;-2.10;1.00
76838;DHT22;65797;47.352;8.164;2023-02-15T06:29:55;-2.10;1.00
76838;DHT22;65797;47.352;8.164;2023-02-15T06:32:21;-2.20;1.00
76838;DHT22;65797;47.352;8.164;2023-02-15T06:34:47;-2.20;1.00
76838;DHT22;65797;47.352;8.164;2023-02-15T06:37:12;-2.30;1.00
76838;DHT22;65797;47.352;8.164;2023-02-15T06:39:38;-2.30;1.00
76838;DHT22;65797;47.352;8.164;2023-02-15T06:42:04;-2.30;1.00
76838;DHT22;65797;47.352;8.164;2023-02-15T06:44:29;-2.20;1.00
76838;DHT22;65797;47.352;8.164;2023-02-15T06:46:55;-2.20;1.00
76838;DHT22;65797;47.352;8.164;2023-02-15T06:49:21;-2.20;1.00
76838;DHT22;65797;47.352;8.164;2023-02-15T06:51:46;-2.30;1.00
76838;DHT22;65797;47.352;8.164;2023-02-15T06:54:12;-2.30;1.00
76838;DHT22;65797;47.352;8.164;2023-02-15T06:56:38;-2.30;1.00
76838;DHT22;65797;47.352;8.164;2023-02-15T06:59:04;-2.30;1.00
76838;DHT22;65797;47.352;8.164;2023-02-15T10:27:55;2.80;99.90
76838;DHT22;65797;47.352;8.164;2023-02-15T10:30:38;2.70;1.00
76838;DHT22;65797;47.352;8.164;2023-02-15T10:41:09;3.60;99.90
76838;DHT22;65797;47.352;8.164;2023-02-15T10:46:27;4.60;99.90
76838;DHT22;65797;47.352;8.164;2023-02-15T11:08:25;5.20;99.90
76838;DHT22;65797;47.352;8.164;2023-02-15T11:10:58;5.10;1.00
76838;DHT22;65797;47.352;8.164;2023-02-15T11:13:31;5.00;99.90
76838;DHT22;65797;47.352;8.164;2023-02-15T11:16:12;4.70;99.90
76838;DHT22;65797;47.352;8.164;2023-02-15T11:18:56;4.80;99.90
76838;DHT22;65797;47.352;8.164;2023-02-15T11:21:39;4.80;99.90
76838;DHT22;65797;47.352;8.164;2023-02-15T11:24:14;5.10;99.90
76838;DHT22;65797;47.352;8.164;2023-02-15T11:26:59;5.20;99.90
76838;DHT22;65797;47.352;8.164;2023-02-15T11:29:37;5.50;99.90
76838;DHT22;65797;47.352;8.164;2023-02-15T11:32:27;5.70;99.90
76838;DHT22;65797;47.352;8.164;2023-02-15T11:37:50;5.70;1.00
76838;DHT22;65797;47.352;8.164;2023-02-15T11:43:03;5.70;99.90
76838;DHT22;65797;47.352;8.164;2023-02-15T11:45:34;6.00;99.90
76838;DHT22;65797;47.352;8.164;2023-02-15T11:48:01;6.20;37.90
76838;DHT22;65797;47.352;8.164;2023-02-15T11:50:32;6.50;1.00
76838;DHT22;65797;47.352;8.164;2023-02-15T11:53:04;6.80;1.00
76838;DHT22;65797;47.352;8.164;2023-02-15T11:55:30;7.10;99.90
76838;DHT22;65797;47.352;8.164;2023-02-15T11:58:01;7.20;1.00
76838;DHT22;65797;47.352;8.164;2023-02-15T12:00:38;7.20;1.00
76838;DHT22;65797;47.352;8.164;2023-02-15T12:06:04;7.20;1.00
76838;DHT22;65797;47.352;8.164;2023-02-15T12:08:38;7.20;1.00
76838;DHT22;65797;47.352;8.164;2023-02-15T12:13:58;7.40;1.00
76838;DHT22;65797;47.352;8.164;2023-02-15T12:16:25;7.70;1.00
76838;DHT22;65797;47.352;8.164;2023-02-15T12:18:54;7.90;1.00
76838;DHT22;65797;47.352;8.164;2023-02-15T12:21:34;8.10;1.00
76838;DHT22;65797;47.352;8.164;2023-02-15T12:27:11;8.50;1.00
76838;DHT22;65797;47.352;8.164;2023-02-15T12:29:46;8.60;1.00
76838;DHT22;65797;47.352;8.164;2023-02-15T12:32:24;8.90;1.00
76838;DHT22;65797;47.352;8.164;2023-02-15T12:34:52;9.20;1.00
76838;DHT22;65797;47.352;8.164;2023-02-15T12:37:27;9.40;1.00
76838;DHT22;65797;47.352;8.164;2023-02-15T12:39:56;9.50;1.00
76838;DHT22;65797;47.352;8.164;2023-02-15T12:42:23;10.00;1.00
76838;DHT22;65797;47.352;8.164;2023-02-15T12:45:22;9.90;1.00
76838;DHT22;65797;47.352;8.164;2023-02-15T12:53:19;10.60;1.00
76838;DHT22;65797;47.352;8.164;2023-02-15T12:56:00;10.10;99.90
76838;DHT22;65797;47.352;8.164;2023-02-15T12:58:29;10.50;99.90
76838;DHT22;65797;47.352;8.164;2023-02-15T13:01:15;10.80;99.90
76838;DHT22;65797;47.352;8.164;2023-02-15T13:03:55;11.10;99.90
76838;DHT22;65797;47.352;8.164;2023-02-15T13:06:23;11.10;99.90
76838;DHT22;65797;47.352;8.164;2023-02-15T13:08:51;11.20;99.90
76838;DHT22;65797;47.352;8.164;2023-02-15T13:11:29;11.70;99.90
76838;DHT22;65797;47.352;8.164;2023-02-15T13:14:28;11.80;99.90
76838;DHT22;65797;47.352;8.164;2023-02-15T13:16:58;12.00;99.90
76838;DHT22;65797;47.352;8.164;2023-02-15T13:21:54;12.20;99.90
76838;DHT22;65797;47.352;8.164;2023-02-15T13:24:27;12.40;99.90
76838;DHT22;65797;47.352;8.164;2023-02-15T13:26:56;12.60;99.90
76838;DHT22;65797;47.352;8.164;2023-02-15T13:31:53;12.60;99.90
76838;DHT22;65797;47.352;8.164;2023-02-15T13:34:34;12.60;99.90
76838;DHT22;65797;47.352;8.164;2023-02-15T13:37:21;12.60;99.90
76838;DHT22;65797;47.352;8.164;2023-02-15T13:40:41;12.70;99.90
76838;DHT22;65797;47.352;8.164;2023-02-15T13:43:35;12.70;99.90
76838;DHT22;65797;47.352;8.164;2023-02-15T13:51:46;13.00;99.90
76838;DHT22;65797;47.352;8.164;2023-02-15T14:21:14;13.30;99.90
76838;DHT22;65797;47.352;8.164;2023-02-15T14:26:23;13.30;99.90
76838;DHT22;65797;47.352;8.164;2023-02-15T14:29:20;13.20;99.90
76838;DHT22;65797;47.352;8.164;2023-02-15T14:31:48;13.30;99.90
76838;DHT22;65797;47.352;8.164;2023-02-15T14:36:52;13.10;99.90
76838;DHT22;65797;47.352;8.164;2023-02-15T14:42:34;13.00;99.90
76838;DHT22;65797;47.352;8.164;2023-02-15T14:48:16;12.90;99.90
76838;DHT22;65797;47.352;8.164;2023-02-15T14:50:47;12.80;99.90
76838;DHT22;65797;47.352;8.164;2023-02-15T15:01:09;11.80;99.90
76838;DHT22;65797;47.352;8.164;2023-02-15T15:06:26;11.70;99.90
76838;DHT22;65797;47.352;8.164;2023-02-15T15:08:58;11.60;99.90
76838;DHT22;65797;47.352;8.164;2023-02-15T15:13:58;11.30;99.90
76838;DHT22;65797;47.352;8.164;2023-02-15T15:19:09;10.70;99.90
76838;DHT22;65797;47.352;8.164;2023-02-15T15:21:55;10.40;99.90
76838;DHT22;65797;47.352;8.164;2023-02-15T15:41:40;9.40;99.90
76838;DHT22;65797;47.352;8.164;2023-02-15T15:47:06;9.30;99.90
76838;DHT22;65797;47.352;8.164;2023-02-15T15:49:37;9.30;99.90
76838;DHT22;65797;47.352;8.164;2023-02-15T15:54:40;9.20;99.90
76838;DHT22;65797;47.352;8.164;2023-02-15T16:17:55;8.50;1.00
76838;DHT22;65797;47.352;8.164;2023-02-15T16:33:18;7.70;1.00
76838;DHT22;65797;47.352;8.164;2023-02-15T16:56:29;6.80;1.00
76838;DHT22;65797;47.352;8.164;2023-02-15T16:58:56;6.70;1.00
76838;DHT22;65797;47.352;8.164;2023-02-15T17:01:28;6.60;1.00
76838;DHT22;65797;47.352;8.164;2023-02-15T17:04:28;6.40;1.00
76838;DHT22;65797;47.352;8.164;2023-02-15T17:07:04;6.20;1.00
76838;DHT22;65797;47.352;8.164;2023-02-15T17:09:31;6.10;1.00
76838;DHT22;65797;47.352;8.164;2023-02-15T17:11:57;6.10;1.00
76838;DHT22;65797;47.352;8.164;2023-02-15T17:14:31;5.90;1.00
76838;DHT22;65797;47.352;8.164;2023-02-15T17:17:14;5.80;1.00
76838;DHT22;65797;47.352;8.164;2023-02-15T17:19:53;5.80;1.00
76838;DHT22;65797;47.352;8.164;2023-02-15T17:22:25;5.70;1.00
76838;DHT22;65797;47.352;8.164;2023-02-15T17:24:59;5.60;1.00
76838;DHT22;65797;47.352;8.164;2023-02-15T17:27:27;5.50;1.00
76838;DHT22;65797;47.352;8.164;2023-02-15T17:30:00;5.40;1.00
76838;DHT22;65797;47.352;8.164;2023-02-15T17:32:28;5.30;1.00
76838;DHT22;65797;47.352;8.164;2023-02-15T17:40:25;5.00;1.00
76838;DHT22;65797;47.352;8.164;2023-02-15T17:42:51;4.80;1.00
76838;DHT22;65797;47.352;8.164;2023-02-15T17:45:18;4.80;1.00
76838;DHT22;65797;47.352;8.164;2023-02-15T17:47:46;4.60;1.00
76838;DHT22;65797;47.352;8.164;2023-02-15T17:50:22;4.50;1.00
76838;DHT22;65797;47.352;8.164;2023-02-15T17:52:48;4.50;1.00
76838;DHT22;65797;47.352;8.164;2023-02-15T17:55:16;4.40;1.00
76838;DHT22;65797;47.352;8.164;2023-02-15T17:58:03;4.30;1.00
76838;DHT22;65797;47.352;8.164;2023-02-15T18:00:35;4.30;1.00
76838;DHT22;65797;47.352;8.164;2023-02-15T18:03:20;4.20;1.00
76838;DHT22;65797;47.352;8.164;2023-02-15T18:06:05;4.10;1.00
76838;DHT22;65797;47.352;8.164;2023-02-15T18:08:49;4.00;1.00
76838;DHT22;65797;47.352;8.164;2023-02-15T18:11:33;3.90;1.00
76838;DHT22;65797;47.352;8.164;2023-02-15T18:14:04;3.80;1.00
76838;DHT22;65797;47.352;8.164;2023-02-15T18:16:33;3.80;1.00
76838;DHT22;65797;47.352;8.164;2023-02-15T18:18:59;3.70;1.00
76838;DHT22;65797;47.352;8.164;2023-02-15T18:21:25;3.60;1.00
76838;DHT22;65797;47.352;8.164;2023-02-15T18:23:51;3.60;1.00
76838;DHT22;65797;47.352;8.164;2023-02-15T18:26:20;3.50;1.00
76838;DHT22;65797;47.352;8.164;2023-02-15T18:28:46;3.50;1.00
76838;DHT22;65797;47.352;8.164;2023-02-15T18:31:12;3.40;1.00
76838;DHT22;65797;47.352;8.164;2023-02-15T18:33:44;3.40;1.00
76838;DHT22;65797;47.352;8.164;2023-02-15T18:36:42;3.30;1.00
76838;DHT22;65797;47.352;8.164;2023-02-15T18:39:46;3.20;1.00
76838;DHT22;65797;47.352;8.164;2023-02-15T18:42:24;3.20;1.00
76838;DHT22;65797;47.352;8.164;2023-02-15T18:44:57;3.10;22.60
76838;DHT22;65797;47.352;8.164;2023-02-15T18:47:23;3.00;7.10
76838;DHT22;65797;47.352;8.164;2023-02-15T18:49:49;2.90;99.90
76838;DHT22;65797;47.352;8.164;2023-02-15T18:52:17;2.90;99.90
76838;DHT22;65797;47.352;8.164;2023-02-15T18:54:45;2.90;99.90
76838;DHT22;65797;47.352;8.164;2023-02-15T18:57:15;2.80;99.90
76838;DHT22;65797;47.352;8.164;2023-02-15T18:59:41;2.80;99.90
76838;DHT22;65797;47.352;8.164;2023-02-15T19:02:15;2.70;56.10
76838;DHT22;65797;47.352;8.164;2023-02-15T19:04:42;2.60;94.00
76838;DHT22;65797;47.352;8.164;2023-02-15T19:07:25;2.60;99.90
76838;DHT22;65797;47.352;8.164;2023-02-15T19:09:54;2.60;99.90
76838;DHT22;65797;47.352;8.164;2023-02-15T19:12:21;2.50;57.60
76838;DHT22;65797;47.352;8.164;2023-02-15T19:14:47;2.40;99.90
76838;DHT22;65797;47.352;8.164;2023-02-15T19:17:18;2.40;99.90
76838;DHT22;65797;47.352;8.164;2023-02-15T19:19:45;2.40;99.90
76838;DHT22;65797;47.352;8.164;2023-02-15T19:22:13;2.30;99.90
76838;DHT22;65797;47.352;8.164;2023-02-15T19:24:42;2.30;99.90
76838;DHT22;65797;47.352;8.164;2023-02-15T19:27:19;2.30;99.90
76838;DHT22;65797;47.352;8.164;2023-02-15T19:29:46;2.20;99.90
76838;DHT22;65797;47.352;8.164;2023-02-15T19:32:11;2.20;99.90
76838;DHT22;65797;47.352;8.164;2023-02-15T19:34:37;2.10;99.90
76838;DHT22;65797;47.352;8.164;2023-02-15T19:37:05;2.10;99.90
76838;DHT22;65797;47.352;8.164;2023-02-15T19:39:38;2.10;99.90
76838;DHT22;65797;47.352;8.164;2023-02-15T19:42:12;2.10;99.90
76838;DHT22;65797;47.352;8.164;2023-02-15T19:44:38;2.00;99.90
76838;DHT22;65797;47.352;8.164;2023-02-15T19:47:12;2.00;99.90
76838;DHT22;65797;47.352;8.164;2023-02-15T19:49:38;1.90;99.90
76838;DHT22;65797;47.352;8.164;2023-02-15T19:52:05;1.90;99.90
76838;DHT22;65797;47.352;8.164;2023-02-15T19:54:33;1.80;99.90
76838;DHT22;65797;47.352;8.164;2023-02-15T19:56:59;1.80;99.90
76838;DHT22;65797;47.352;8.164;2023-02-15T19:59:31;1.70;99.90
76838;DHT22;65797;47.352;8.164;2023-02-15T20:01:57;1.70;99.90
76838;DHT22;65797;47.352;8.164;2023-02-15T20:04:24;1.70;99.90
76838;DHT22;65797;47.352;8.164;2023-02-15T20:06:50;1.60;99.90
76838;DHT22;65797;47.352;8.164;2023-02-15T20:09:20;1.60;99.90
76838;DHT22;65797;47.352;8.164;2023-02-15T20:11:49;1.60;99.90
76838;DHT22;65797;47.352;8.164;2023-02-15T20:14:15;1.50;99.90
76838;DHT22;65797;47.352;8.164;2023-02-15T20:16:41;1.50;99.90
76838;DHT22;65797;47.352;8.164;2023-02-15T20:19:06;1.50;99.90
76838;DHT22;65797;47.352;8.164;2023-02-15T20:21:33;1.50;1.00
76838;DHT22;65797;47.352;8.164;2023-02-15T20:23:59;1.40;1.00
76838;DHT22;65797;47.352;8.164;2023-02-15T20:26:25;1.40;99.90
76838;DHT22;65797;47.352;8.164;2023-02-15T20:28:54;1.40;99.90
76838;DHT22;65797;47.352;8.164;2023-02-15T20:31:20;1.30;99.90
76838;DHT22;65797;47.352;8.164;2023-02-15T20:33:47;1.30;99.90
76838;DHT22;65797;47.352;8.164;2023-02-15T20:36:14;1.30;1.00
76838;DHT22;65797;47.352;8.164;2023-02-15T20:38:43;1.30;99.90
76838;DHT22;65797;47.352;8.164;2023-02-15T20:41:17;1.30;1.00
76838;DHT22;65797;47.352;8.164;2023-02-15T20:44:21;1.20;99.90
76838;DHT22;65797;47.352;8.164;2023-02-15T20:46:47;1.10;99.90
76838;DHT22;65797;47.352;8.164;2023-02-15T20:49:13;1.10;1.00
76838;DHT22;65797;47.352;8.164;2023-02-15T20:51:39;1.10;1.00
76838;DHT22;65797;47.352;8.164;2023-02-15T20:54:14;1.10;1.00
76838;DHT22;65797;47.352;8.164;2023-02-15T20:56:41;1.10;1.00
76838;DHT22;65797;47.352;8.164;2023-02-15T20:59:23;1.10;1.00
76838;DHT22;65797;47.352;8.164;2023-02-15T21:01:50;1.10;1.00
76838;DHT22;65797;47.352;8.164;2023-02-15T21:04:18;1.00;1.00
76838;DHT22;65797;47.352;8.164;2023-02-15T21:06:44;1.00;1.00
76838;DHT22;65797;47.352;8.164;2023-02-15T21:09:14;1.00;1.00
76838;DHT22;65797;47.352;8.164;2023-02-15T21:11:42;1.00;1.00
76838;DHT22;65797;47.352;8.164;2023-02-15T21:14:20;1.00;1.00
76838;DHT22;65797;47.352;8.164;2023-02-15T21:16:46;1.00;1.00
76838;DHT22;65797;47.352;8.164;2023-02-15T21:19:18;1.00;1.00
76838;DHT22;65797;47.352;8.164;2023-02-15T21:21:44;1.00;1.00
76838;DHT22;65797;47.352;8.164;2023-02-15T21:24:29;0.90;1.00
76838;DHT22;65797;47.352;8.164;2023-02-15T21:26:57;0.90;1.00
76838;DHT22;65797;47.352;8.164;2023-02-15T21:29:25;0.90;1.00
76838;DHT22;65797;47.352;8.164;2023-02-15T21:31:52;0.80;1.00
76838;DHT22;65797;47.352;8.164;2023-02-15T21:34:19;0.70;1.00
76838;DHT22;65797;47.352;8.164;2023-02-15T21:36:46;0.70;99.90
76838;DHT22;65797;47.352;8.164;2023-02-15T21:39:25;0.70;99.90
76838;DHT22;65797;47.352;8.164;2023-02-15T21:41:52;0.70;99.90
76838;DHT22;65797;47.352;8.164;2023-02-15T21:44:38;0.70;99.90
76838;DHT22;65797;47.352;8.164;2023-02-15T21:47:25;0.70;99.90
76838;DHT22;65797;47.352;8.164;2023-02-15T21:50:22;0.70;1.00
76838;DHT22;65797;47.352;8.164;2023-02-15T21:53:09;0.60;1.00
76838;DHT22;65797;47.352;8.164;2023-02-15T21:55:36;0.60;99.90
76838;DHT22;65797;47.352;8.164;2023-02-15T21:58:01;0.60;99.90
76838;DHT22;65797;47.352;8.164;2023-02-15T22:00:28;0.60;99.90
76838;DHT22;65797;47.352;8.164;2023-02-15T22:02:56;0.60;99.90
76838;DHT22;65797;47.352;8.164;2023-02-15T22:05:27;0.60;99.90
76838;DHT22;65797;47.352;8.164;2023-02-15T22:07:53;0.60;99.90
76838;DHT22;65797;47.352;8.164;2023-02-15T22:10:19;0.50;99.90
76838;DHT22;65797;47.352;8.164;2023-02-15T22:12:45;0.50;99.90
76838;DHT22;65797;47.352;8.164;2023-02-15T22:15:19;0.50;99.90
76838;DHT22;65797;47.352;8.164;2023-02-15T22:17:46;0.40;75.10
76838;DHT22;65797;47.352;8.164;2023-02-15T22:20:21;0.40;99.90
76838;DHT22;65797;47.352;8.164;2023-02-15T22:22:48;0.40;99.90
76838;DHT22;65797;47.352;8.164;2023-02-15T22:25:17;0.40;99.90
76838;DHT22;65797;47.352;8.164;2023-02-15T22:27:44;0.40;99.90
76838;DHT22;65797;47.352;8.164;2023-02-15T22:30:25;0.40;99.90
76838;DHT22;65797;47.352;8.164;2023-02-15T22:32:52;0.30;99.90
76838;DHT22;65797;47.352;8.164;2023-02-15T22:35:25;0.30;99.90
76838;DHT22;65797;47.352;8.164;2023-02-15T22:37:51;0.30;99.90
76838;DHT22;65797;47.352;8.164;2023-02-15T22:40:18;0.30;99.90
76838;DHT22;65797;47.352;8.164;2023-02-15T22:42:46;0.30;99.90
76838;DHT22;65797;47.352;8.164;2023-02-15T22:45:18;0.30;99.90
76838;DHT22;65797;47.352;8.164;2023-02-15T22:47:46;0.30;99.90
76838;DHT22;65797;47.352;8.164;2023-02-15T22:50:20;0.20;76.80
76838;DHT22;65797;47.352;8.164;2023-02-15T22:52:47;0.20;99.90
76838;DHT22;65797;47.352;8.164;2023-02-15T22:55:17;0.20;1.00
76838;DHT22;65797;47.352;8.164;2023-02-15T22:57:45;0.20;1.00
76838;DHT22;65797;47.352;8.164;2023-02-15T23:00:21;0.20;1.00
76838;DHT22;65797;47.352;8.164;2023-02-15T23:02:48;0.20;99.90
76838;DHT22;65797;47.352;8.164;2023-02-15T23:05:28;0.10;1.00
76838;DHT22;65797;47.352;8.164;2023-02-15T23:07:54;0.10;1.00
76838;DHT22;65797;47.352;8.164;2023-02-15T23:10:23;0.10;1.00
76838;DHT22;65797;47.352;8.164;2023-02-15T23:12:55;0.10;1.00
76838;DHT22;65797;47.352;8.164;2023-02-15T23:15:41;0.10;99.90
76838;DHT22;65797;47.352;8.164;2023-02-15T23:18:30;0.10;99.90
76838;DHT22;65797;47.352;8.164;2023-02-15T23:21:02;0.10;99.90
76838;DHT22;65797;47.352;8.164;2023-02-15T23:23:37;0.10;99.90
76838;DHT22;65797;47.352;8.164;2023-02-15T23:26:05;0.00;93.80